sensor_id;sensor_type;location;lat;lon;timestamp;P1;durP1;ratioP1;P2;durP2;ratioP2
15958;SDS011;8078;47.822;9.402;2023-04-03T00:01:12;1127.93;;;92.57;;
15958;SDS011;8078;47.822;9.402;2023-04-03T00:03:39;1160.60;;;88.27;;
15958;SDS011;8078;47.822;9.402;2023-04-03T00:06:06;1159.53;;;87.97;;
15958;SDS011;8078;47.822;9.402;2023-04-03T00:08:33;1195.97;;;97.90;;
15958;SDS011;8078;47.822;9.402;2023-04-03T00:10:59;1245.07;;;97.33;;
15958;SDS011;8078;47.822;9.402;2023-04-03T00:13:25;1089.13;;;88.97;;
15958;SDS011;8078;47.822;9.402;2023-04-03T00:15:51;1254.27;;;99.23;;
15958;SDS011;8078;47.822;9.402;2023-04-03T00:18:17;1372.90;;;111.20;;
15958;SDS011;8078;47.822;9.402;2023-04-03T00:20:42;1289.47;;;100.20;;
15958;SDS011;8078;47.822;9.402;2023-04-03T00:23:08;1122.97;;;82.23;;
15958;SDS011;8078;47.822;9.402;2023-04-03T00:25:34;1093.60;;;78.20;;
15958;SDS011;8078;47.822;9.402;2023-04-03T00:28:00;1183.53;;;96.73;;
15958;SDS011;8078;47.822;9.402;2023-04-03T00:30:26;1141.43;;;87.13;;
15958;SDS011;8078;47.822;9.402;2023-04-03T00:32:52;1330.63;;;99.23;;
15958;SDS011;8078;47.822;9.402;2023-04-03T00:35:18;1287.93;;;100.50;;
15958;SDS011;8078;47.822;9.402;2023-04-03T00:37:45;1264.80;;;95.43;;
15958;SDS011;8078;47.822;9.402;2023-04-03T00:40:12;61.10;;;16.37;;
15958;SDS011;8078;47.822;9.402;2023-04-03T00:42:39;28.47;;;14.07;;
15958;SDS011;8078;47.822;9.402;2023-04-03T00:45:23;25.47;;;13.77;;
15958;SDS011;8078;47.822;9.402;2023-04-03T00:48:10;27.20;;;13.00;;
15958;SDS011;8078;47.822;9.402;2023-04-03T00:50:40;25.33;;;12.87;;
15958;SDS011;8078;47.822;9.402;2023-04-03T00:53:08;28.83;;;14.27;;
15958;SDS011;8078;47.822;9.402;2023-04-03T00:55:37;27.83;;;13.07;;
15958;SDS011;8078;47.822;9.402;2023-04-03T00:58:04;28.80;;;14.57;;
15958;SDS011;8078;47.822;9.402;2023-04-03T01:00:31;25.63;;;13.70;;
15958;SDS011;8078;47.822;9.402;2023-04-03T01:02:58;26.73;;;13.57;;
15958;SDS011;8078;47.822;9.402;2023-04-03T01:05:23;28.30;;;13.87;;
15958;SDS011;8078;47.822;9.402;2023-04-03T01:07:49;26.47;;;12.73;;
15958;SDS011;8078;47.822;9.402;2023-04-03T01:10:17;26.60;;;13.53;;
15958;SDS011;8078;47.822;9.402;2023-04-03T01:12:45;25.03;;;12.83;;
15958;SDS011;8078;47.822;9.402;2023-04-03T01:15:17;26.63;;;14.00;;
15958;SDS011;8078;47.822;9.402;2023-04-03T01:17:55;30.83;;;15.03;;
15958;SDS011;8078;47.822;9.402;2023-04-03T01:25:40;29.57;;;15.17;;
15958;SDS011;8078;47.822;9.402;2023-04-03T01:28:28;29.87;;;15.43;;
15958;SDS011;8078;47.822;9.402;2023-04-03T01:33:30;33.10;;;16.13;;
15958;SDS011;8078;47.822;9.402;2023-04-03T01:35:56;30.43;;;16.03;;
15958;SDS011;8078;47.822;9.402;2023-04-03T01:38:21;33.27;;;16.43;;
15958;SDS011;8078;47.822;9.402;2023-04-03T01:40:47;33.87;;;16.13;;
15958;SDS011;8078;47.822;9.402;2023-04-03T01:43:13;32.67;;;16.03;;
15958;SDS011;8078;47.822;9.402;2023-04-03T01:45:38;31.70;;;16.37;;
15958;SDS011;8078;47.822;9.402;2023-04-03T01:48:04;33.77;;;17.87;;
15958;SDS011;8078;47.822;9.402;2023-04-03T01:50:30;29.37;;;15.40;;
15958;SDS011;8078;47.822;9.402;2023-04-03T01:52:55;31.90;;;17.63;;
15958;SDS011;8078;47.822;9.402;2023-04-03T01:55:21;30.73;;;15.93;;
15958;SDS011;8078;47.822;9.402;2023-04-03T01:57:46;30.63;;;15.90;;
15958;SDS011;8078;47.822;9.402;2023-04-03T02:00:12;29.27;;;16.00;;
15958;SDS011;8078;47.822;9.402;2023-04-03T02:02:38;32.90;;;16.10;;
15958;SDS011;8078;47.822;9.402;2023-04-03T02:05:04;29.37;;;16.03;;
15958;SDS011;8078;47.822;9.402;2023-04-03T02:07:30;31.77;;;15.87;;
15958;SDS011;8078;47.822;9.402;2023-04-03T02:09:56;34.23;;;16.47;;
15958;SDS011;8078;47.822;9.402;2023-04-03T02:12:21;29.63;;;14.80;;
15958;SDS011;8078;47.822;9.402;2023-04-03T02:14:47;29.33;;;15.20;;
15958;SDS011;8078;47.822;9.402;2023-04-03T02:17:12;31.73;;;16.00;;
15958;SDS011;8078;47.822;9.402;2023-04-03T02:19:38;32.03;;;14.60;;
15958;SDS011;8078;47.822;9.402;2023-04-03T02:22:04;29.57;;;15.40;;
15958;SDS011;8078;47.822;9.402;2023-04-03T02:24:30;24.77;;;14.93;;
15958;SDS011;8078;47.822;9.402;2023-04-03T02:26:56;26.53;;;14.70;;
15958;SDS011;8078;47.822;9.402;2023-04-03T02:29:21;25.87;;;14.63;;
15958;SDS011;8078;47.822;9.402;2023-04-03T02:31:48;23.93;;;14.03;;
15958;SDS011;8078;47.822;9.402;2023-04-03T02:34:14;25.07;;;14.30;;
15958;SDS011;8078;47.822;9.402;2023-04-03T02:36:39;28.90;;;14.80;;
15958;SDS011;8078;47.822;9.402;2023-04-03T02:39:05;25.27;;;13.93;;
15958;SDS011;8078;47.822;9.402;2023-04-03T02:41:30;21.10;;;13.77;;
15958;SDS011;8078;47.822;9.402;2023-04-03T02:44:05;23.10;;;13.33;;
15958;SDS011;8078;47.822;9.402;2023-04-03T02:46:31;21.03;;;12.37;;
15958;SDS011;8078;47.822;9.402;2023-04-03T02:48:57;19.07;;;12.17;;
15958;SDS011;8078;47.822;9.402;2023-04-03T02:51:23;20.57;;;12.70;;
15958;SDS011;8078;47.822;9.402;2023-04-03T02:53:49;18.77;;;11.73;;
15958;SDS011;8078;47.822;9.402;2023-04-03T02:56:15;19.60;;;12.43;;
15958;SDS011;8078;47.822;9.402;2023-04-03T02:58:42;19.03;;;11.50;;
15958;SDS011;8078;47.822;9.402;2023-04-03T03:01:07;19.43;;;11.27;;
15958;SDS011;8078;47.822;9.402;2023-04-03T03:03:33;19.43;;;10.93;;
15958;SDS011;8078;47.822;9.402;2023-04-03T03:06:09;17.63;;;10.60;;
15958;SDS011;8078;47.822;9.402;2023-04-03T03:08:37;14.57;;;9.60;;
15958;SDS011;8078;47.822;9.402;2023-04-03T03:11:06;19.17;;;11.50;;
15958;SDS011;8078;47.822;9.402;2023-04-03T03:13:31;17.57;;;11.33;;
15958;SDS011;8078;47.822;9.402;2023-04-03T03:15:57;13.70;;;9.27;;
15958;SDS011;8078;47.822;9.402;2023-04-03T03:18:23;14.47;;;10.47;;
15958;SDS011;8078;47.822;9.402;2023-04-03T03:20:52;13.17;;;9.43;;
15958;SDS011;8078;47.822;9.402;2023-04-03T03:23:20;12.03;;;8.27;;
15958;SDS011;8078;47.822;9.402;2023-04-03T03:25:46;10.77;;;8.50;;
15958;SDS011;8078;47.822;9.402;2023-04-03T03:28:12;10.50;;;7.47;;
15958;SDS011;8078;47.822;9.402;2023-04-03T03:30:38;10.63;;;7.43;;
15958;SDS011;8078;47.822;9.402;2023-04-03T03:33:03;10.67;;;7.30;;
15958;SDS011;8078;47.822;9.402;2023-04-03T03:35:29;9.97;;;7.23;;
15958;SDS011;8078;47.822;9.402;2023-04-03T03:37:55;9.57;;;7.23;;
15958;SDS011;8078;47.822;9.402;2023-04-03T03:40:20;10.17;;;6.50;;
15958;SDS011;8078;47.822;9.402;2023-04-03T03:42:46;10.43;;;7.50;;
15958;SDS011;8078;47.822;9.402;2023-04-03T03:45:11;8.83;;;6.97;;
15958;SDS011;8078;47.822;9.402;2023-04-03T03:47:37;12.23;;;7.13;;
15958;SDS011;8078;47.822;9.402;2023-04-03T03:50:03;11.17;;;7.17;;
15958;SDS011;8078;47.822;9.402;2023-04-03T03:52:29;8.33;;;6.53;;
15958;SDS011;8078;47.822;9.402;2023-04-03T03:54:55;9.50;;;6.93;;
15958;SDS011;8078;47.822;9.402;2023-04-03T03:57:21;8.90;;;7.33;;
15958;SDS011;8078;47.822;9.402;2023-04-03T03:59:46;9.63;;;7.77;;
15958;SDS011;8078;47.822;9.402;2023-04-03T04:02:13;11.23;;;7.60;;
15958;SDS011;8078;47.822;9.402;2023-04-03T04:04:39;12.10;;;7.50;;
15958;SDS011;8078;47.822;9.402;2023-04-03T04:07:05;9.23;;;6.97;;
15958;SDS011;8078;47.822;9.402;2023-04-03T04:09:31;9.40;;;7.07;;
15958;SDS011;8078;47.822;9.402;2023-04-03T04:11:56;9.77;;;6.53;;
15958;SDS011;8078;47.822;9.402;2023-04-03T04:14:22;10.60;;;7.70;;
15958;SDS011;8078;47.822;9.402;2023-04-03T04:16:47;11.13;;;7.33;;
15958;SDS011;8078;47.822;9.402;2023-04-03T04:19:13;9.03;;;6.83;;
15958;SDS011;8078;47.822;9.402;2023-04-03T04:21:39;8.30;;;6.10;;
15958;SDS011;8078;47.822;9.402;2023-04-03T04:24:06;9.33;;;6.73;;
15958;SDS011;8078;47.822;9.402;2023-04-03T04:26:33;10.30;;;6.97;;
15958;SDS011;8078;47.822;9.402;2023-04-03T04:28:59;9.57;;;6.90;;
15958;SDS011;8078;47.822;9.402;2023-04-03T04:31:25;11.00;;;7.60;;
15958;SDS011;8078;47.822;9.402;2023-04-03T04:33:50;10.37;;;7.37;;
15958;SDS011;8078;47.822;9.402;2023-04-03T04:36:17;10.07;;;7.37;;
15958;SDS011;8078;47.822;9.402;2023-04-03T04:38:43;12.03;;;7.70;;
15958;SDS011;8078;47.822;9.402;2023-04-03T04:41:09;9.50;;;7.17;;
15958;SDS011;8078;47.822;9.402;2023-04-03T04:43:35;7.90;;;6.53;;
15958;SDS011;8078;47.822;9.402;2023-04-03T04:46:01;7.80;;;6.20;;
15958;SDS011;8078;47.822;9.402;2023-04-03T04:48:32;8.50;;;6.43;;
15958;SDS011;8078;47.822;9.402;2023-04-03T04:50:58;9.23;;;6.50;;
15958;SDS011;8078;47.822;9.402;2023-04-03T04:53:23;10.53;;;6.60;;
15958;SDS011;8078;47.822;9.402;2023-04-03T04:55:49;9.10;;;6.10;;
15958;SDS011;8078;47.822;9.402;2023-04-03T04:58:16;8.63;;;6.27;;
15958;SDS011;8078;47.822;9.402;2023-04-03T05:00:41;11.37;;;6.23;;
15958;SDS011;8078;47.822;9.402;2023-04-03T05:03:07;7.83;;;6.63;;
15958;SDS011;8078;47.822;9.402;2023-04-03T05:05:32;8.33;;;6.40;;
15958;SDS011;8078;47.822;9.402;2023-04-03T05:07:58;8.77;;;6.33;;
15958;SDS011;8078;47.822;9.402;2023-04-03T05:10:23;9.20;;;6.57;;
15958;SDS011;8078;47.822;9.402;2023-04-03T05:12:49;10.47;;;6.63;;
15958;SDS011;8078;47.822;9.402;2023-04-03T05:15:14;8.57;;;6.63;;
15958;SDS011;8078;47.822;9.402;2023-04-03T05:17:40;9.27;;;6.80;;
15958;SDS011;8078;47.822;9.402;2023-04-03T05:20:06;10.40;;;6.77;;
15958;SDS011;8078;47.822;9.402;2023-04-03T05:22:31;9.80;;;6.23;;
15958;SDS011;8078;47.822;9.402;2023-04-03T05:24:57;8.67;;;5.80;;
15958;SDS011;8078;47.822;9.402;2023-04-03T05:27:23;8.30;;;6.47;;
15958;SDS011;8078;47.822;9.402;2023-04-03T05:29:49;8.10;;;6.10;;
15958;SDS011;8078;47.822;9.402;2023-04-03T05:32:15;8.50;;;5.97;;
15958;SDS011;8078;47.822;9.402;2023-04-03T05:34:41;9.03;;;6.40;;
15958;SDS011;8078;47.822;9.402;2023-04-03T05:37:07;8.37;;;5.93;;
15958;SDS011;8078;47.822;9.402;2023-04-03T05:39:32;7.03;;;6.27;;
15958;SDS011;8078;47.822;9.402;2023-04-03T05:41:58;9.50;;;6.27;;
15958;SDS011;8078;47.822;9.402;2023-04-03T05:44:24;9.57;;;6.40;;
15958;SDS011;8078;47.822;9.402;2023-04-03T05:46:50;8.63;;;6.10;;
15958;SDS011;8078;47.822;9.402;2023-04-03T05:49:15;11.37;;;6.47;;
15958;SDS011;8078;47.822;9.402;2023-04-03T05:51:41;7.60;;;6.23;;
15958;SDS011;8078;47.822;9.402;2023-04-03T05:54:09;8.57;;;6.27;;
15958;SDS011;8078;47.822;9.402;2023-04-03T05:56:36;7.37;;;6.53;;
15958;SDS011;8078;47.822;9.402;2023-04-03T05:59:02;7.97;;;6.10;;
15958;SDS011;8078;47.822;9.402;2023-04-03T06:01:27;7.23;;;6.37;;
15958;SDS011;8078;47.822;9.402;2023-04-03T06:03:53;7.20;;;5.93;;
15958;SDS011;8078;47.822;9.402;2023-04-03T06:06:19;9.50;;;6.03;;
15958;SDS011;8078;47.822;9.402;2023-04-03T06:08:44;8.47;;;6.20;;
15958;SDS011;8078;47.822;9.402;2023-04-03T06:11:11;7.60;;;6.50;;
15958;SDS011;8078;47.822;9.402;2023-04-03T06:13:36;6.90;;;5.90;;
15958;SDS011;8078;47.822;9.402;2023-04-03T06:16:02;7.83;;;6.13;;
15958;SDS011;8078;47.822;9.402;2023-04-03T06:18:28;8.97;;;5.87;;
15958;SDS011;8078;47.822;9.402;2023-04-03T06:20:55;8.10;;;6.20;;
15958;SDS011;8078;47.822;9.402;2023-04-03T06:23:20;8.90;;;5.83;;
15958;SDS011;8078;47.822;9.402;2023-04-03T06:25:46;6.97;;;5.60;;
15958;SDS011;8078;47.822;9.402;2023-04-03T06:28:12;8.30;;;5.63;;
15958;SDS011;8078;47.822;9.402;2023-04-03T06:30:37;7.57;;;5.70;;
15958;SDS011;8078;47.822;9.402;2023-04-03T06:33:03;8.50;;;6.00;;
15958;SDS011;8078;47.822;9.402;2023-04-03T06:35:29;6.47;;;5.07;;
15958;SDS011;8078;47.822;9.402;2023-04-03T06:37:55;7.17;;;5.53;;
15958;SDS011;8078;47.822;9.402;2023-04-03T06:40:22;6.77;;;5.77;;
15958;SDS011;8078;47.822;9.402;2023-04-03T06:42:49;6.20;;;5.33;;
15958;SDS011;8078;47.822;9.402;2023-04-03T06:45:14;7.70;;;5.73;;
15958;SDS011;8078;47.822;9.402;2023-04-03T06:47:40;9.00;;;5.73;;
15958;SDS011;8078;47.822;9.402;2023-04-03T06:50:06;9.73;;;6.40;;
15958;SDS011;8078;47.822;9.402;2023-04-03T06:52:34;6.87;;;5.93;;
15958;SDS011;8078;47.822;9.402;2023-04-03T06:54:59;8.87;;;6.00;;
15958;SDS011;8078;47.822;9.402;2023-04-03T06:57:25;7.53;;;6.03;;
15958;SDS011;8078;47.822;9.402;2023-04-03T06:59:51;8.50;;;5.87;;
15958;SDS011;8078;47.822;9.402;2023-04-03T07:02:17;9.50;;;6.73;;
15958;SDS011;8078;47.822;9.402;2023-04-03T07:04:42;8.80;;;6.83;;
15958;SDS011;8078;47.822;9.402;2023-04-03T07:07:08;8.63;;;6.13;;
15958;SDS011;8078;47.822;9.402;2023-04-03T07:09:33;8.93;;;6.23;;
15958;SDS011;8078;47.822;9.402;2023-04-03T07:11:59;8.17;;;6.20;;
15958;SDS011;8078;47.822;9.402;2023-04-03T07:14:25;9.67;;;6.33;;
15958;SDS011;8078;47.822;9.402;2023-04-03T07:16:51;8.83;;;6.57;;
15958;SDS011;8078;47.822;9.402;2023-04-03T07:19:16;11.17;;;7.00;;
15958;SDS011;8078;47.822;9.402;2023-04-03T07:21:43;11.80;;;7.27;;
15958;SDS011;8078;47.822;9.402;2023-04-03T07:24:09;8.87;;;6.80;;
15958;SDS011;8078;47.822;9.402;2023-04-03T07:26:35;8.17;;;6.83;;
15958;SDS011;8078;47.822;9.402;2023-04-03T07:29:01;9.53;;;6.87;;
15958;SDS011;8078;47.822;9.402;2023-04-03T07:31:27;9.50;;;6.43;;
15958;SDS011;8078;47.822;9.402;2023-04-03T07:33:52;11.20;;;6.83;;
15958;SDS011;8078;47.822;9.402;2023-04-03T07:36:18;10.60;;;6.63;;
15958;SDS011;8078;47.822;9.402;2023-04-03T07:38:45;8.37;;;6.80;;
15958;SDS011;8078;47.822;9.402;2023-04-03T07:41:14;9.80;;;6.23;;
15958;SDS011;8078;47.822;9.402;2023-04-03T07:43:40;10.30;;;6.20;;
15958;SDS011;8078;47.822;9.402;2023-04-03T07:46:07;10.10;;;6.90;;
15958;SDS011;8078;47.822;9.402;2023-04-03T07:48:34;12.80;;;7.67;;
15958;SDS011;8078;47.822;9.402;2023-04-03T07:51:00;9.70;;;7.30;;
15958;SDS011;8078;47.822;9.402;2023-04-03T07:53:27;11.30;;;7.63;;
15958;SDS011;8078;47.822;9.402;2023-04-03T07:55:52;10.70;;;6.73;;
15958;SDS011;8078;47.822;9.402;2023-04-03T07:58:20;9.07;;;7.20;;
15958;SDS011;8078;47.822;9.402;2023-04-03T08:00:46;10.83;;;7.40;;
15958;SDS011;8078;47.822;9.402;2023-04-03T08:03:13;8.60;;;6.87;;
15958;SDS011;8078;47.822;9.402;2023-04-03T08:05:43;10.67;;;7.50;;
15958;SDS011;8078;47.822;9.402;2023-04-03T08:08:10;8.50;;;6.47;;
15958;SDS011;8078;47.822;9.402;2023-04-03T08:10:37;10.77;;;7.73;;
15958;SDS011;8078;47.822;9.402;2023-04-03T08:13:03;9.57;;;7.70;;
15958;SDS011;8078;47.822;9.402;2023-04-03T08:15:29;11.20;;;7.60;;
15958;SDS011;8078;47.822;9.402;2023-04-03T08:17:55;8.60;;;7.33;;
15958;SDS011;8078;47.822;9.402;2023-04-03T08:20:21;10.50;;;7.90;;
15958;SDS011;8078;47.822;9.402;2023-04-03T08:22:46;9.97;;;7.97;;
15958;SDS011;8078;47.822;9.402;2023-04-03T08:25:12;8.53;;;6.67;;
15958;SDS011;8078;47.822;9.402;2023-04-03T08:27:38;9.23;;;7.33;;
15958;SDS011;8078;47.822;9.402;2023-04-03T08:30:04;9.63;;;6.97;;
15958;SDS011;8078;47.822;9.402;2023-04-03T08:32:31;10.03;;;7.07;;
15958;SDS011;8078;47.822;9.402;2023-04-03T08:34:58;8.37;;;7.10;;
15958;SDS011;8078;47.822;9.402;2023-04-03T08:37:23;10.37;;;8.00;;
15958;SDS011;8078;47.822;9.402;2023-04-03T08:39:49;11.53;;;7.60;;
15958;SDS011;8078;47.822;9.402;2023-04-03T08:48:05;11.17;;;7.37;;
15958;SDS011;8078;47.822;9.402;2023-04-03T08:50:38;8.53;;;6.93;;
15958;SDS011;8078;47.822;9.402;2023-04-03T08:53:11;10.20;;;6.83;;
15958;SDS011;8078;47.822;9.402;2023-04-03T08:55:42;8.77;;;6.77;;
15958;SDS011;8078;47.822;9.402;2023-04-03T08:58:26;8.23;;;6.60;;
15958;SDS011;8078;47.822;9.402;2023-04-03T09:04:05;7.60;;;6.47;;
15958;SDS011;8078;47.822;9.402;2023-04-03T09:06:36;12.23;;;7.83;;
15958;SDS011;8078;47.822;9.402;2023-04-03T09:09:09;10.83;;;7.70;;
15958;SDS011;8078;47.822;9.402;2023-04-03T09:11:45;11.30;;;7.53;;
15958;SDS011;8078;47.822;9.402;2023-04-03T09:18:33;10.50;;;6.90;;
15958;SDS011;8078;47.822;9.402;2023-04-03T09:23:33;8.87;;;7.00;;
15958;SDS011;8078;47.822;9.402;2023-04-03T09:26:13;10.07;;;7.00;;
15958;SDS011;8078;47.822;9.402;2023-04-03T09:28:42;10.67;;;6.97;;
15958;SDS011;8078;47.822;9.402;2023-04-03T09:31:22;8.43;;;6.90;;
15958;SDS011;8078;47.822;9.402;2023-04-03T09:33:50;8.43;;;6.87;;
15958;SDS011;8078;47.822;9.402;2023-04-03T09:39:13;10.17;;;7.30;;
15958;SDS011;8078;47.822;9.402;2023-04-03T09:41:41;9.17;;;6.70;;
15958;SDS011;8078;47.822;9.402;2023-04-03T09:44:23;8.60;;;6.77;;
15958;SDS011;8078;47.822;9.402;2023-04-03T09:46:51;8.10;;;6.93;;
15958;SDS011;8078;47.822;9.402;2023-04-03T09:49:17;11.17;;;6.70;;
15958;SDS011;8078;47.822;9.402;2023-04-03T09:51:44;8.80;;;7.27;;
15958;SDS011;8078;47.822;9.402;2023-04-03T09:56:55;8.53;;;6.83;;
15958;SDS011;8078;47.822;9.402;2023-04-03T09:59:23;12.93;;;7.23;;
15958;SDS011;8078;47.822;9.402;2023-04-03T10:04:43;8.17;;;7.13;;
15958;SDS011;8078;47.822;9.402;2023-04-03T10:10:15;12.13;;;6.53;;
15958;SDS011;8078;47.822;9.402;2023-04-03T10:12:39;8.10;;;6.47;;
15958;SDS011;8078;47.822;9.402;2023-04-03T10:15:10;11.07;;;6.83;;
15958;SDS011;8078;47.822;9.402;2023-04-03T10:23:00;10.07;;;6.60;;
15958;SDS011;8078;47.822;9.402;2023-04-03T10:28:45;7.07;;;6.20;;
15958;SDS011;8078;47.822;9.402;2023-04-03T10:34:13;7.77;;;6.67;;
15958;SDS011;8078;47.822;9.402;2023-04-03T10:42:39;8.40;;;6.80;;
15958;SDS011;8078;47.822;9.402;2023-04-03T10:58:44;9.53;;;5.83;;
15958;SDS011;8078;47.822;9.402;2023-04-03T11:01:18;7.00;;;5.77;;
15958;SDS011;8078;47.822;9.402;2023-04-03T11:04:05;7.67;;;5.93;;
15958;SDS011;8078;47.822;9.402;2023-04-03T11:06:35;5.90;;;5.27;;
15958;SDS011;8078;47.822;9.402;2023-04-03T11:11:58;6.67;;;5.50;;
15958;SDS011;8078;47.822;9.402;2023-04-03T11:14:37;5.47;;;4.80;;
15958;SDS011;8078;47.822;9.402;2023-04-03T11:17:20;6.67;;;5.20;;
15958;SDS011;8078;47.822;9.402;2023-04-03T11:22:50;5.53;;;4.93;;
15958;SDS011;8078;47.822;9.402;2023-04-03T11:25:24;6.27;;;5.60;;
15958;SDS011;8078;47.822;9.402;2023-04-03T11:27:55;8.07;;;5.20;;
15958;SDS011;8078;47.822;9.402;2023-04-03T11:30:24;5.37;;;4.87;;
15958;SDS011;8078;47.822;9.402;2023-04-03T11:33:03;6.10;;;5.13;;
15958;SDS011;8078;47.822;9.402;2023-04-03T11:35:30;6.73;;;5.30;;
15958;SDS011;8078;47.822;9.402;2023-04-03T11:37:57;5.30;;;4.80;;
15958;SDS011;8078;47.822;9.402;2023-04-03T11:40:26;5.73;;;5.17;;
15958;SDS011;8078;47.822;9.402;2023-04-03T11:43:07;7.83;;;4.90;;
15958;SDS011;8078;47.822;9.402;2023-04-03T11:45:51;8.70;;;5.00;;
15958;SDS011;8078;47.822;9.402;2023-04-03T11:50:59;5.23;;;4.73;;
15958;SDS011;8078;47.822;9.402;2023-04-03T11:53:27;5.97;;;4.83;;
15958;SDS011;8078;47.822;9.402;2023-04-03T11:55:57;5.87;;;5.27;;
15958;SDS011;8078;47.822;9.402;2023-04-03T11:58:34;5.50;;;4.73;;
15958;SDS011;8078;47.822;9.402;2023-04-03T12:01:01;4.33;;;3.93;;
15958;SDS011;8078;47.822;9.402;2023-04-03T12:03:55;5.13;;;4.63;;
15958;SDS011;8078;47.822;9.402;2023-04-03T12:08:58;4.70;;;4.23;;
15958;SDS011;8078;47.822;9.402;2023-04-03T12:11:25;5.10;;;4.60;;
15958;SDS011;8078;47.822;9.402;2023-04-03T12:16:21;6.23;;;4.40;;
15958;SDS011;8078;47.822;9.402;2023-04-03T12:21:20;4.90;;;4.03;;
15958;SDS011;8078;47.822;9.402;2023-04-03T12:24:23;4.50;;;4.07;;
15958;SDS011;8078;47.822;9.402;2023-04-03T12:27:02;4.70;;;4.00;;
15958;SDS011;8078;47.822;9.402;2023-04-03T12:32:37;4.83;;;3.93;;
15958;SDS011;8078;47.822;9.402;2023-04-03T12:46:46;4.20;;;3.80;;
15958;SDS011;8078;47.822;9.402;2023-04-03T12:51:57;7.03;;;4.17;;
15958;SDS011;8078;47.822;9.402;2023-04-03T12:54:31;6.10;;;4.23;;
15958;SDS011;8078;47.822;9.402;2023-04-03T12:57:17;5.37;;;4.63;;
15958;SDS011;8078;47.822;9.402;2023-04-03T12:59:44;4.93;;;4.53;;
15958;SDS011;8078;47.822;9.402;2023-04-03T13:02:22;5.47;;;4.43;;
15958;SDS011;8078;47.822;9.402;2023-04-03T13:04:52;4.53;;;3.90;;
15958;SDS011;8078;47.822;9.402;2023-04-03T13:07:21;6.10;;;5.20;;
15958;SDS011;8078;47.822;9.402;2023-04-03T13:10:00;4.70;;;4.30;;
15958;SDS011;8078;47.822;9.402;2023-04-03T13:12:28;5.13;;;4.40;;
15958;SDS011;8078;47.822;9.402;2023-04-03T13:14:55;5.20;;;4.30;;
15958;SDS011;8078;47.822;9.402;2023-04-03T13:17:23;5.13;;;4.63;;
15958;SDS011;8078;47.822;9.402;2023-04-03T13:19:49;5.43;;;4.57;;
15958;SDS011;8078;47.822;9.402;2023-04-03T13:24:53;5.30;;;4.80;;
15958;SDS011;8078;47.822;9.402;2023-04-03T13:27:20;5.87;;;4.10;;
15958;SDS011;8078;47.822;9.402;2023-04-03T13:29:50;4.80;;;4.40;;
15958;SDS011;8078;47.822;9.402;2023-04-03T13:32:19;7.93;;;4.60;;
15958;SDS011;8078;47.822;9.402;2023-04-03T13:34:48;5.23;;;4.50;;
15958;SDS011;8078;47.822;9.402;2023-04-03T13:37:21;5.50;;;4.97;;
15958;SDS011;8078;47.822;9.402;2023-04-03T13:42:25;5.13;;;4.63;;
15958;SDS011;8078;47.822;9.402;2023-04-03T13:45:17;5.53;;;4.97;;
15958;SDS011;8078;47.822;9.402;2023-04-03T13:47:54;4.57;;;4.17;;
15958;SDS011;8078;47.822;9.402;2023-04-03T13:50:40;4.70;;;4.27;;
15958;SDS011;8078;47.822;9.402;2023-04-03T13:53:41;5.10;;;4.40;;
15958;SDS011;8078;47.822;9.402;2023-04-03T13:56:16;4.53;;;4.10;;
15958;SDS011;8078;47.822;9.402;2023-04-03T14:01:55;5.40;;;4.53;;
15958;SDS011;8078;47.822;9.402;2023-04-03T14:07:13;4.83;;;4.43;;
15958;SDS011;8078;47.822;9.402;2023-04-03T14:09:39;5.30;;;4.07;;
15958;SDS011;8078;47.822;9.402;2023-04-03T14:12:07;5.17;;;4.47;;
15958;SDS011;8078;47.822;9.402;2023-04-03T14:14:37;5.17;;;4.57;;
15958;SDS011;8078;47.822;9.402;2023-04-03T14:17:10;5.63;;;4.30;;
15958;SDS011;8078;47.822;9.402;2023-04-03T14:19:41;5.67;;;4.60;;
15958;SDS011;8078;47.822;9.402;2023-04-03T14:22:11;5.53;;;4.50;;
15958;SDS011;8078;47.822;9.402;2023-04-03T14:24:41;4.97;;;4.00;;
15958;SDS011;8078;47.822;9.402;2023-04-03T14:27:11;4.50;;;4.10;;
15958;SDS011;8078;47.822;9.402;2023-04-03T14:29:40;7.50;;;4.37;;
15958;SDS011;8078;47.822;9.402;2023-04-03T14:32:06;6.23;;;4.20;;
15958;SDS011;8078;47.822;9.402;2023-04-03T14:34:31;5.50;;;4.70;;
15958;SDS011;8078;47.822;9.402;2023-04-03T14:36:57;4.23;;;3.87;;
15958;SDS011;8078;47.822;9.402;2023-04-03T14:39:23;4.77;;;4.23;;
15958;SDS011;8078;47.822;9.402;2023-04-03T14:41:48;5.67;;;4.73;;
15958;SDS011;8078;47.822;9.402;2023-04-03T14:44:14;4.73;;;4.33;;
15958;SDS011;8078;47.822;9.402;2023-04-03T14:46:41;4.90;;;4.50;;
15958;SDS011;8078;47.822;9.402;2023-04-03T14:49:15;4.73;;;4.33;;
15958;SDS011;8078;47.822;9.402;2023-04-03T14:51:47;5.10;;;4.60;;
15958;SDS011;8078;47.822;9.402;2023-04-03T14:54:13;4.57;;;4.17;;
15958;SDS011;8078;47.822;9.402;2023-04-03T14:56:41;5.13;;;4.70;;
15958;SDS011;8078;47.822;9.402;2023-04-03T14:59:13;5.43;;;4.93;;
15958;SDS011;8078;47.822;9.402;2023-04-03T15:01:40;5.40;;;4.90;;
15958;SDS011;8078;47.822;9.402;2023-04-03T15:04:16;6.17;;;4.60;;
15958;SDS011;8078;47.822;9.402;2023-04-03T15:06:45;4.70;;;4.30;;
15958;SDS011;8078;47.822;9.402;2023-04-03T15:11:46;4.90;;;4.40;;
15958;SDS011;8078;47.822;9.402;2023-04-03T15:14:12;6.03;;;4.70;;
15958;SDS011;8078;47.822;9.402;2023-04-03T15:16:38;5.80;;;5.00;;
15958;SDS011;8078;47.822;9.402;2023-04-03T15:19:04;5.27;;;4.77;;
15958;SDS011;8078;47.822;9.402;2023-04-03T15:21:29;7.20;;;4.67;;
15958;SDS011;8078;47.822;9.402;2023-04-03T15:23:55;6.07;;;5.20;;
15958;SDS011;8078;47.822;9.402;2023-04-03T15:26:20;4.90;;;4.37;;
15958;SDS011;8078;47.822;9.402;2023-04-03T15:28:46;5.27;;;4.27;;
15958;SDS011;8078;47.822;9.402;2023-04-03T15:31:12;6.17;;;4.50;;
15958;SDS011;8078;47.822;9.402;2023-04-03T15:33:38;4.60;;;4.10;;
15958;SDS011;8078;47.822;9.402;2023-04-03T15:36:04;6.77;;;4.63;;
15958;SDS011;8078;47.822;9.402;2023-04-03T15:38:30;5.10;;;4.23;;
15958;SDS011;8078;47.822;9.402;2023-04-03T15:40:55;6.43;;;4.60;;
15958;SDS011;8078;47.822;9.402;2023-04-03T15:43:21;5.03;;;4.30;;
15958;SDS011;8078;47.822;9.402;2023-04-03T15:45:47;6.50;;;4.83;;
15958;SDS011;8078;47.822;9.402;2023-04-03T15:48:14;6.90;;;5.13;;
15958;SDS011;8078;47.822;9.402;2023-04-03T15:50:40;7.07;;;5.10;;
15958;SDS011;8078;47.822;9.402;2023-04-03T15:53:06;6.63;;;5.50;;
15958;SDS011;8078;47.822;9.402;2023-04-03T15:55:33;5.80;;;5.07;;
15958;SDS011;8078;47.822;9.402;2023-04-03T15:57:59;5.30;;;4.80;;
15958;SDS011;8078;47.822;9.402;2023-04-03T16:00:26;8.30;;;5.07;;
15958;SDS011;8078;47.822;9.402;2023-04-03T16:02:53;8.03;;;5.27;;
15958;SDS011;8078;47.822;9.402;2023-04-03T16:05:22;5.87;;;4.87;;
15958;SDS011;8078;47.822;9.402;2023-04-03T16:07:49;9.93;;;5.20;;
15958;SDS011;8078;47.822;9.402;2023-04-03T16:10:15;6.80;;;4.97;;
15958;SDS011;8078;47.822;9.402;2023-04-03T16:12:42;6.53;;;5.33;;
15958;SDS011;8078;47.822;9.402;2023-04-03T16:15:08;5.33;;;4.73;;
15958;SDS011;8078;47.822;9.402;2023-04-03T16:17:34;5.50;;;4.87;;
15958;SDS011;8078;47.822;9.402;2023-04-03T16:20:02;5.23;;;4.73;;
15958;SDS011;8078;47.822;9.402;2023-04-03T16:22:29;6.60;;;5.07;;
15958;SDS011;8078;47.822;9.402;2023-04-03T16:24:55;6.17;;;5.33;;
15958;SDS011;8078;47.822;9.402;2023-04-03T16:27:21;5.70;;;4.97;;
15958;SDS011;8078;47.822;9.402;2023-04-03T16:29:47;6.77;;;4.73;;
15958;SDS011;8078;47.822;9.402;2023-04-03T16:32:12;5.07;;;4.57;;
15958;SDS011;8078;47.822;9.402;2023-04-03T16:34:39;5.90;;;5.30;;
15958;SDS011;8078;47.822;9.402;2023-04-03T16:37:05;6.93;;;4.93;;
15958;SDS011;8078;47.822;9.402;2023-04-03T16:39:33;6.90;;;5.03;;
15958;SDS011;8078;47.822;9.402;2023-04-03T16:42:00;6.57;;;4.90;;
15958;SDS011;8078;47.822;9.402;2023-04-03T16:44:25;8.50;;;5.53;;
15958;SDS011;8078;47.822;9.402;2023-04-03T16:46:51;5.53;;;4.93;;
15958;SDS011;8078;47.822;9.402;2023-04-03T16:49:17;5.63;;;5.13;;
15958;SDS011;8078;47.822;9.402;2023-04-03T16:51:42;6.17;;;5.57;;